UAL1260 KSFO-KLAX
Flight info
| Callsign | UAL1260 |
|---|---|
| Flight time | 0h 58m |
| Altitude | 35000 |
| Route | WESLA5 SUSEY EBAYE BURGL IRNMN2 |
| Aircraft | B738/M-SDE2E3FGHIRWXY/LB1 |
Departure
| Time | 2026-05-06 11:39 |
|---|---|
| Airport | San Francisco International Airport (KSFO) |
Arrival
| Time | 2026-05-06 12:37 |
|---|---|
| Airport | Los Angeles International Airport (KLAX) |
| Time | Latitude | Longitude | Altitude | Speed | Heading |
|---|---|---|---|---|---|
| 2026-05-06 10:53 | 37.61754 | -122.38036 | 22 ft | 0 kts | 279° |
| 2026-05-06 11:15 | 37.61753 | -122.38031 | 21 ft | 3 kts | 279° |
| 2026-05-06 11:15 | 37.61748 | -122.37998 | 21 ft | 4 kts | 280° |
| 2026-05-06 11:15 | 37.61744 | -122.37970 | 21 ft | 4 kts | 293° |
| 2026-05-06 11:15 | 37.61729 | -122.37949 | 23 ft | 4 kts | 348° |
| 2026-05-06 11:16 | 37.61712 | -122.37947 | 20 ft | 0 kts | 2° |
| 2026-05-06 11:20 | 37.61731 | -122.37946 | 24 ft | 5 kts | 2° |
| 2026-05-06 11:20 | 37.61752 | -122.37945 | 21 ft | 0 kts | 2° |
| 2026-05-06 11:22 | 37.61754 | -122.38036 | 21 ft | 6 kts | 279° |
| 2026-05-06 11:31 | 37.61753 | -122.38034 | 19 ft | 2 kts | 279° |
| 2026-05-06 11:31 | 37.61749 | -122.38001 | 19 ft | 4 kts | 280° |
| 2026-05-06 11:32 | 37.61745 | -122.37973 | 19 ft | 4 kts | 293° |
| 2026-05-06 11:32 | 37.61729 | -122.37951 | 19 ft | 4 kts | 343° |
| 2026-05-06 11:32 | 37.61708 | -122.37947 | 20 ft | 1 kts | 2° |
| 2026-05-06 11:32 | 37.61705 | -122.37947 | 20 ft | 0 kts | 2° |
| 2026-05-06 11:34 | 37.61710 | -122.37945 | 19 ft | 3 kts | 14° |
| 2026-05-06 11:34 | 37.61732 | -122.37910 | 19 ft | 6 kts | 60° |
| 2026-05-06 11:35 | 37.61771 | -122.37853 | 21 ft | 10 kts | 46° |
| 2026-05-06 11:35 | 37.61796 | -122.37766 | 19 ft | 13 kts | 105° |
| 2026-05-06 11:35 | 37.61761 | -122.37646 | 19 ft | 16 kts | 112° |
| 2026-05-06 11:35 | 37.61718 | -122.37499 | 19 ft | 19 kts | 111° |
| 2026-05-06 11:36 | 37.61660 | -122.37348 | 19 ft | 19 kts | 122° |
| 2026-05-06 11:36 | 37.61592 | -122.37207 | 19 ft | 19 kts | 118° |
| 2026-05-06 11:36 | 37.61533 | -122.37066 | 21 ft | 18 kts | 117° |
| 2026-05-06 11:36 | 37.61476 | -122.36930 | 19 ft | 17 kts | 120° |
| 2026-05-06 11:37 | 37.61420 | -122.36799 | 19 ft | 17 kts | 117° |
| 2026-05-06 11:37 | 37.61418 | -122.36662 | 19 ft | 16 kts | 68° |
| 2026-05-06 11:37 | 37.61487 | -122.36598 | 21 ft | 13 kts | 316° |
| 2026-05-06 11:37 | 37.61532 | -122.36697 | 19 ft | 17 kts | 297° |
| 2026-05-06 11:38 | 37.61680 | -122.37049 | 19 ft | 76 kts | 297° |
| 2026-05-06 11:38 | 37.62013 | -122.37842 | 20 ft | 127 kts | 298° |
| 2026-05-06 11:38 | 37.62488 | -122.38975 | 60 ft | 162 kts | 298° |
| 2026-05-06 11:38 | 37.63020 | -122.40243 | 592 ft | 162 kts | 296° |
| 2026-05-06 11:39 | 37.63543 | -122.41529 | 1096 ft | 170 kts | 298° |
| 2026-05-06 11:39 | 37.64152 | -122.42902 | 1496 ft | 182 kts | 298° |
| 2026-05-06 11:39 | 37.64782 | -122.44361 | 1823 ft | 200 kts | 297° |
| 2026-05-06 11:39 | 37.65486 | -122.45960 | 1983 ft | 217 kts | 298° |
| 2026-05-06 11:40 | 37.66253 | -122.47666 | 2266 ft | 229 kts | 299° |
| 2026-05-06 11:40 | 37.66879 | -122.49561 | 2542 ft | 245 kts | 274° |
| 2026-05-06 11:40 | 37.66533 | -122.51682 | 3007 ft | 255 kts | 241° |
| 2026-05-06 11:40 | 37.65313 | -122.53325 | 3504 ft | 263 kts | 210° |
| 2026-05-06 11:41 | 37.63566 | -122.54002 | 4061 ft | 268 kts | 180° |
| 2026-05-06 11:41 | 37.61715 | -122.53603 | 4590 ft | 274 kts | 161° |
| 2026-05-06 11:41 | 37.59922 | -122.52746 | 5195 ft | 278 kts | 157° |
| 2026-05-06 11:41 | 37.58122 | -122.51818 | 5772 ft | 282 kts | 157° |
| 2026-05-06 11:42 | 37.56275 | -122.50892 | 6365 ft | 287 kts | 158° |
| 2026-05-06 11:42 | 37.54397 | -122.49987 | 6942 ft | 292 kts | 158° |
| 2026-05-06 11:42 | 37.52492 | -122.49092 | 7587 ft | 293 kts | 158° |
| 2026-05-06 11:42 | 37.50578 | -122.48201 | 8264 ft | 294 kts | 158° |
| 2026-05-06 11:43 | 37.48735 | -122.47101 | 8898 ft | 294 kts | 139° |
| 2026-05-06 11:43 | 37.47289 | -122.45291 | 9607 ft | 293 kts | 130° |
| 2026-05-06 11:43 | 37.45909 | -122.43397 | 10260 ft | 297 kts | 130° |
| 2026-05-06 11:44 | 37.42939 | -122.39291 | 10616 ft | 338 kts | 130° |
| 2026-05-06 11:44 | 37.41317 | -122.37060 | 10945 ft | 350 kts | 131° |
| 2026-05-06 11:44 | 37.39676 | -122.34814 | 11496 ft | 355 kts | 131° |
| 2026-05-06 11:44 | 37.37973 | -122.32493 | 12124 ft | 359 kts | 131° |
| 2026-05-06 11:45 | 37.36269 | -122.30177 | 12737 ft | 362 kts | 131° |
| 2026-05-06 11:45 | 37.34546 | -122.27838 | 13380 ft | 365 kts | 131° |
| 2026-05-06 11:45 | 37.32813 | -122.25488 | 14040 ft | 369 kts | 131° |
| 2026-05-06 11:45 | 37.31083 | -122.23145 | 14610 ft | 372 kts | 131° |
| 2026-05-06 11:46 | 37.29313 | -122.20748 | 15199 ft | 377 kts | 130° |
| 2026-05-06 11:46 | 37.27521 | -122.18325 | 15781 ft | 381 kts | 130° |
| 2026-05-06 11:46 | 37.25706 | -122.15871 | 16354 ft | 385 kts | 130° |
| 2026-05-06 11:46 | 37.23874 | -122.13395 | 16930 ft | 390 kts | 130° |
| 2026-05-06 11:47 | 37.22017 | -122.10888 | 17494 ft | 394 kts | 129° |
| 2026-05-06 11:47 | 37.20142 | -122.08360 | 18059 ft | 398 kts | 129° |
| 2026-05-06 11:47 | 37.18248 | -122.05808 | 18589 ft | 402 kts | 129° |
| 2026-05-06 11:47 | 37.16332 | -122.03228 | 19115 ft | 405 kts | 129° |
| 2026-05-06 11:48 | 37.14408 | -122.00640 | 19647 ft | 407 kts | 129° |
| 2026-05-06 11:48 | 37.12476 | -121.98045 | 20177 ft | 409 kts | 129° |
| 2026-05-06 11:48 | 37.10523 | -121.95422 | 20674 ft | 412 kts | 129° |
| 2026-05-06 11:48 | 37.08558 | -121.92785 | 21173 ft | 415 kts | 129° |
| 2026-05-06 11:49 | 37.06583 | -121.90136 | 21675 ft | 418 kts | 129° |
| 2026-05-06 11:49 | 37.04592 | -121.87469 | 22178 ft | 421 kts | 129° |
| 2026-05-06 11:49 | 37.02583 | -121.84780 | 22667 ft | 423 kts | 129° |
| 2026-05-06 11:49 | 37.00566 | -121.82082 | 23146 ft | 426 kts | 129° |
| 2026-05-06 11:50 | 36.98533 | -121.79366 | 23620 ft | 429 kts | 129° |
| 2026-05-06 11:50 | 36.96490 | -121.76637 | 24002 ft | 432 kts | 129° |
| 2026-05-06 11:50 | 36.94427 | -121.73885 | 24381 ft | 434 kts | 129° |
| 2026-05-06 11:50 | 36.92360 | -121.71129 | 24774 ft | 436 kts | 129° |
| 2026-05-06 11:51 | 36.90278 | -121.68357 | 25157 ft | 438 kts | 129° |
| 2026-05-06 11:51 | 36.88186 | -121.65573 | 25533 ft | 441 kts | 129° |
| 2026-05-06 11:51 | 36.86083 | -121.62777 | 25898 ft | 443 kts | 129° |
| 2026-05-06 11:51 | 36.83969 | -121.59969 | 26268 ft | 445 kts | 129° |
| 2026-05-06 11:52 | 36.81841 | -121.57144 | 26608 ft | 448 kts | 129° |
| 2026-05-06 11:52 | 36.79700 | -121.54305 | 26956 ft | 450 kts | 129° |
| 2026-05-06 11:52 | 36.77554 | -121.51461 | 27307 ft | 452 kts | 129° |
| 2026-05-06 11:52 | 36.75395 | -121.48604 | 27682 ft | 453 kts | 129° |
| 2026-05-06 11:53 | 36.73229 | -121.45739 | 27999 ft | 455 kts | 129° |
| 2026-05-06 11:53 | 36.71051 | -121.42861 | 28329 ft | 457 kts | 129° |
| 2026-05-06 11:53 | 36.68865 | -121.39974 | 28652 ft | 459 kts | 129° |
| 2026-05-06 11:53 | 36.66666 | -121.37073 | 28949 ft | 462 kts | 129° |
| 2026-05-06 11:54 | 36.64455 | -121.34159 | 29259 ft | 464 kts | 129° |
| 2026-05-06 11:54 | 36.62237 | -121.31237 | 29564 ft | 466 kts | 129° |
| 2026-05-06 11:54 | 36.60008 | -121.28305 | 29860 ft | 467 kts | 129° |
| 2026-05-06 11:54 | 36.57765 | -121.25358 | 30157 ft | 469 kts | 129° |
| 2026-05-06 11:55 | 36.55517 | -121.22406 | 30497 ft | 469 kts | 129° |
| 2026-05-06 11:55 | 36.53279 | -121.19471 | 30908 ft | 466 kts | 129° |
| 2026-05-06 11:55 | 36.51054 | -121.16556 | 31274 ft | 465 kts | 129° |
| 2026-05-06 11:55 | 36.48829 | -121.13640 | 31565 ft | 465 kts | 129° |
| 2026-05-06 11:56 | 36.46605 | -121.10727 | 31837 ft | 465 kts | 129° |
| 2026-05-06 11:56 | 36.44404 | -121.07848 | 32149 ft | 465 kts | 129° |
| 2026-05-06 11:56 | 36.42192 | -121.04935 | 32470 ft | 463 kts | 127° |
| 2026-05-06 11:56 | 36.40060 | -121.01957 | 32787 ft | 461 kts | 126° |
| 2026-05-06 11:57 | 36.38049 | -120.99045 | 33068 ft | 460 kts | 125° |
| 2026-05-06 11:57 | 36.35978 | -120.96009 | 33365 ft | 460 kts | 125° |
| 2026-05-06 11:57 | 36.33912 | -120.92987 | 33663 ft | 459 kts | 125° |
| 2026-05-06 11:57 | 36.31839 | -120.89973 | 33975 ft | 458 kts | 126° |
| 2026-05-06 11:58 | 36.29766 | -120.86979 | 34219 ft | 458 kts | 126° |
| 2026-05-06 11:58 | 36.27683 | -120.83985 | 34451 ft | 458 kts | 126° |
| 2026-05-06 11:58 | 36.25599 | -120.81001 | 34684 ft | 458 kts | 126° |
| 2026-05-06 11:58 | 36.23512 | -120.78019 | 34893 ft | 457 kts | 126° |
| 2026-05-06 11:59 | 36.21428 | -120.75043 | 35108 ft | 457 kts | 126° |
| 2026-05-06 11:59 | 36.19344 | -120.72071 | 35183 ft | 459 kts | 126° |
| 2026-05-06 11:59 | 36.15133 | -120.66067 | 35186 ft | 461 kts | 126° |
| 2026-05-06 12:00 | 36.10943 | -120.60111 | 35176 ft | 456 kts | 126° |
| 2026-05-06 12:00 | 36.06791 | -120.54214 | 35198 ft | 454 kts | 126° |
| 2026-05-06 12:01 | 36.03338 | -120.49317 | 35188 ft | 454 kts | 126° |
| 2026-05-06 12:01 | 35.99193 | -120.43446 | 35185 ft | 454 kts | 126° |
| 2026-05-06 12:02 | 35.95044 | -120.37581 | 35182 ft | 453 kts | 126° |
| 2026-05-06 12:02 | 35.90901 | -120.31733 | 35188 ft | 452 kts | 126° |
| 2026-05-06 12:03 | 35.86611 | -120.26038 | 35170 ft | 458 kts | 134° |
| 2026-05-06 12:03 | 35.81252 | -120.21645 | 35185 ft | 466 kts | 144° |
| 2026-05-06 12:04 | 35.75661 | -120.17573 | 35185 ft | 467 kts | 144° |
| 2026-05-06 12:04 | 35.70103 | -120.13418 | 35166 ft | 468 kts | 143° |
| 2026-05-06 12:05 | 35.64543 | -120.09225 | 35186 ft | 469 kts | 143° |
| 2026-05-06 12:05 | 35.58974 | -120.05022 | 35174 ft | 470 kts | 143° |
| 2026-05-06 12:06 | 35.53388 | -120.00812 | 35173 ft | 471 kts | 143° |
| 2026-05-06 12:06 | 35.47903 | -119.96685 | 35168 ft | 470 kts | 143° |
| 2026-05-06 12:07 | 35.42379 | -119.92535 | 35166 ft | 469 kts | 143° |
| 2026-05-06 12:07 | 35.36859 | -119.88399 | 35140 ft | 454 kts | 143° |
| 2026-05-06 12:08 | 35.34208 | -119.86417 | 35155 ft | 440 kts | 143° |
| 2026-05-06 12:08 | 35.31637 | -119.84494 | 35139 ft | 426 kts | 142° |
| 2026-05-06 12:08 | 35.29147 | -119.82634 | 35165 ft | 412 kts | 142° |
| 2026-05-06 12:08 | 35.26815 | -119.80724 | 35145 ft | 396 kts | 137° |
| 2026-05-06 12:09 | 35.24655 | -119.78724 | 35146 ft | 384 kts | 135° |
| 2026-05-06 12:09 | 35.22553 | -119.76691 | 35173 ft | 387 kts | 134° |
| 2026-05-06 12:09 | 35.18311 | -119.72593 | 34828 ft | 390 kts | 135° |
| 2026-05-06 12:10 | 35.16164 | -119.70557 | 34415 ft | 389 kts | 135° |
| 2026-05-06 12:10 | 35.14024 | -119.68547 | 34042 ft | 387 kts | 135° |
| 2026-05-06 12:10 | 35.11897 | -119.66562 | 33576 ft | 382 kts | 135° |
| 2026-05-06 12:10 | 35.09795 | -119.64606 | 33095 ft | 377 kts | 135° |
| 2026-05-06 12:11 | 35.07718 | -119.62674 | 32628 ft | 373 kts | 135° |
| 2026-05-06 12:11 | 35.05667 | -119.60767 | 32168 ft | 369 kts | 135° |
| 2026-05-06 12:11 | 35.03640 | -119.58883 | 31728 ft | 365 kts | 135° |
| 2026-05-06 12:11 | 35.01630 | -119.57014 | 31283 ft | 361 kts | 135° |
| 2026-05-06 12:12 | 34.99652 | -119.55176 | 30856 ft | 358 kts | 135° |
| 2026-05-06 12:12 | 34.97682 | -119.53346 | 30444 ft | 355 kts | 135° |
| 2026-05-06 12:12 | 34.95729 | -119.51533 | 29975 ft | 351 kts | 135° |
| 2026-05-06 12:12 | 34.93793 | -119.49739 | 29461 ft | 348 kts | 135° |
| 2026-05-06 12:13 | 34.91874 | -119.47962 | 28964 ft | 344 kts | 135° |
| 2026-05-06 12:13 | 34.89967 | -119.46220 | 28467 ft | 342 kts | 136° |
| 2026-05-06 12:13 | 34.88056 | -119.44509 | 27984 ft | 339 kts | 136° |
| 2026-05-06 12:13 | 34.86189 | -119.42845 | 27520 ft | 336 kts | 136° |
| 2026-05-06 12:14 | 34.84309 | -119.41169 | 27054 ft | 333 kts | 136° |
| 2026-05-06 12:14 | 34.82445 | -119.39506 | 26586 ft | 331 kts | 136° |
| 2026-05-06 12:14 | 34.80595 | -119.37851 | 26098 ft | 330 kts | 137° |
| 2026-05-06 12:14 | 34.78705 | -119.36154 | 25034 ft | 348 kts | 137° |
| 2026-05-06 12:15 | 34.76685 | -119.34339 | 23747 ft | 374 kts | 138° |
| 2026-05-06 12:15 | 34.74529 | -119.32414 | 22591 ft | 389 kts | 139° |
| 2026-05-06 12:15 | 34.72371 | -119.30533 | 22207 ft | 378 kts | 140° |
| 2026-05-06 12:15 | 34.70249 | -119.28691 | 21782 ft | 370 kts | 140° |
| 2026-05-06 12:16 | 34.68180 | -119.26891 | 21398 ft | 362 kts | 140° |
| 2026-05-06 12:16 | 34.66147 | -119.25118 | 21019 ft | 357 kts | 140° |
| 2026-05-06 12:16 | 34.64142 | -119.23371 | 20659 ft | 353 kts | 140° |
| 2026-05-06 12:16 | 34.62136 | -119.21637 | 20314 ft | 357 kts | 140° |
| 2026-05-06 12:17 | 34.60070 | -119.19852 | 19954 ft | 371 kts | 140° |
| 2026-05-06 12:17 | 34.57955 | -119.18031 | 19566 ft | 371 kts | 140° |
| 2026-05-06 12:17 | 34.55872 | -119.16239 | 19158 ft | 363 kts | 140° |
| 2026-05-06 12:17 | 34.53848 | -119.14460 | 18788 ft | 355 kts | 140° |
| 2026-05-06 12:18 | 34.51880 | -119.12712 | 18412 ft | 347 kts | 140° |
| 2026-05-06 12:18 | 34.49948 | -119.10992 | 18022 ft | 342 kts | 139° |
| 2026-05-06 12:18 | 34.48040 | -119.09298 | 17627 ft | 337 kts | 140° |
| 2026-05-06 12:18 | 34.46152 | -119.07627 | 17298 ft | 338 kts | 140° |
| 2026-05-06 12:19 | 34.44217 | -119.05913 | 16828 ft | 350 kts | 140° |
| 2026-05-06 12:19 | 34.42231 | -119.04179 | 16478 ft | 351 kts | 140° |
| 2026-05-06 12:19 | 34.40258 | -119.02477 | 16071 ft | 344 kts | 140° |
| 2026-05-06 12:19 | 34.38333 | -119.00816 | 15705 ft | 335 kts | 140° |
| 2026-05-06 12:20 | 34.36540 | -118.99268 | 15372 ft | 327 kts | 140° |
| 2026-05-06 12:20 | 34.34706 | -118.97683 | 15045 ft | 322 kts | 140° |
| 2026-05-06 12:20 | 34.32911 | -118.96094 | 14717 ft | 318 kts | 139° |
| 2026-05-06 12:20 | 34.31141 | -118.94478 | 14387 ft | 321 kts | 138° |
| 2026-05-06 12:21 | 34.29331 | -118.92819 | 14040 ft | 334 kts | 139° |
| 2026-05-06 12:21 | 34.27462 | -118.91117 | 13643 ft | 336 kts | 139° |
| 2026-05-06 12:21 | 34.25614 | -118.89445 | 13253 ft | 328 kts | 139° |
| 2026-05-06 12:21 | 34.23840 | -118.87827 | 12884 ft | 319 kts | 139° |
| 2026-05-06 12:22 | 34.22098 | -118.86224 | 12545 ft | 311 kts | 139° |
| 2026-05-06 12:22 | 34.20396 | -118.84658 | 12243 ft | 303 kts | 139° |
| 2026-05-06 12:22 | 34.18746 | -118.83144 | 12127 ft | 293 kts | 139° |
| 2026-05-06 12:22 | 34.17143 | -118.81673 | 12002 ft | 288 kts | 139° |
| 2026-05-06 12:23 | 34.15561 | -118.80136 | 11777 ft | 298 kts | 135° |
| 2026-05-06 12:23 | 34.13999 | -118.78437 | 11494 ft | 305 kts | 134° |
| 2026-05-06 12:23 | 34.12438 | -118.76706 | 11169 ft | 304 kts | 134° |
| 2026-05-06 12:23 | 34.10889 | -118.74996 | 10873 ft | 300 kts | 134° |
| 2026-05-06 12:24 | 34.09349 | -118.73307 | 10562 ft | 297 kts | 134° |
| 2026-05-06 12:24 | 34.07823 | -118.71643 | 10262 ft | 293 kts | 134° |
| 2026-05-06 12:24 | 34.06329 | -118.70022 | 9964 ft | 285 kts | 134° |
| 2026-05-06 12:24 | 34.04873 | -118.68443 | 9637 ft | 278 kts | 135° |
| 2026-05-06 12:25 | 34.03510 | -118.66848 | 9347 ft | 269 kts | 122° |
| 2026-05-06 12:25 | 34.02804 | -118.64833 | 9116 ft | 260 kts | 99° |
| 2026-05-06 12:25 | 34.02545 | -118.62653 | 8864 ft | 266 kts | 94° |
| 2026-05-06 12:25 | 34.02361 | -118.60420 | 8574 ft | 270 kts | 93° |
| 2026-05-06 12:26 | 34.02171 | -118.58175 | 8304 ft | 269 kts | 94° |
| 2026-05-06 12:26 | 34.01970 | -118.55939 | 8029 ft | 267 kts | 94° |
| 2026-05-06 12:26 | 34.01771 | -118.53746 | 7785 ft | 258 kts | 94° |
| 2026-05-06 12:26 | 34.01574 | -118.51632 | 7566 ft | 249 kts | 94° |
| 2026-05-06 12:27 | 34.01382 | -118.49595 | 7355 ft | 240 kts | 94° |
| 2026-05-06 12:27 | 34.01196 | -118.47627 | 7157 ft | 233 kts | 94° |
| 2026-05-06 12:27 | 34.01034 | -118.45703 | 6971 ft | 229 kts | 88° |
| 2026-05-06 12:27 | 34.01279 | -118.43839 | 6792 ft | 224 kts | 73° |
| 2026-05-06 12:28 | 34.01637 | -118.42002 | 6622 ft | 226 kts | 76° |
| 2026-05-06 12:28 | 34.01971 | -118.40131 | 6439 ft | 230 kts | 76° |
| 2026-05-06 12:28 | 34.02303 | -118.38232 | 6233 ft | 232 kts | 76° |
| 2026-05-06 12:28 | 34.02631 | -118.36334 | 6061 ft | 231 kts | 76° |
| 2026-05-06 12:29 | 34.02897 | -118.34422 | 6006 ft | 233 kts | 81° |
| 2026-05-06 12:29 | 34.03090 | -118.32476 | 5988 ft | 233 kts | 82° |
| 2026-05-06 12:29 | 34.03277 | -118.30550 | 5980 ft | 229 kts | 82° |
| 2026-05-06 12:29 | 34.03473 | -118.28656 | 5788 ft | 234 kts | 79° |
| 2026-05-06 12:30 | 34.03727 | -118.26671 | 5505 ft | 236 kts | 79° |
| 2026-05-06 12:30 | 34.03982 | -118.24737 | 5233 ft | 232 kts | 79° |
| 2026-05-06 12:30 | 34.04222 | -118.22866 | 5026 ft | 226 kts | 79° |
| 2026-05-06 12:30 | 34.04460 | -118.21005 | 4846 ft | 224 kts | 79° |
| 2026-05-06 12:31 | 34.04694 | -118.19151 | 4681 ft | 224 kts | 79° |
| 2026-05-06 12:31 | 34.04948 | -118.17289 | 4585 ft | 226 kts | 78° |
| 2026-05-06 12:31 | 34.05212 | -118.15406 | 4491 ft | 231 kts | 87° |
| 2026-05-06 12:31 | 34.04787 | -118.13562 | 4412 ft | 232 kts | 128° |
| 2026-05-06 12:32 | 34.03492 | -118.12472 | 4347 ft | 232 kts | 168° |
| 2026-05-06 12:32 | 34.01892 | -118.12266 | 4267 ft | 234 kts | 183° |
| 2026-05-06 12:32 | 34.00293 | -118.12545 | 4129 ft | 232 kts | 199° |
| 2026-05-06 12:32 | 33.98846 | -118.13335 | 3993 ft | 227 kts | 217° |
| 2026-05-06 12:33 | 33.97726 | -118.14604 | 3930 ft | 216 kts | 234° |
| 2026-05-06 12:33 | 33.96928 | -118.16135 | 3714 ft | 218 kts | 246° |
| 2026-05-06 12:33 | 33.96315 | -118.17824 | 3467 ft | 222 kts | 250° |
| 2026-05-06 12:33 | 33.95866 | -118.19596 | 3182 ft | 220 kts | 256° |
| 2026-05-06 12:34 | 33.95523 | -118.21389 | 2884 ft | 218 kts | 260° |
| 2026-05-06 12:34 | 33.95298 | -118.23181 | 2594 ft | 215 kts | 263° |
| 2026-05-06 12:34 | 33.95117 | -118.24934 | 2345 ft | 208 kts | 263° |
| 2026-05-06 12:34 | 33.94941 | -118.26653 | 2047 ft | 203 kts | 263° |
| 2026-05-06 12:35 | 33.94770 | -118.28301 | 1770 ft | 193 kts | 263° |
| 2026-05-06 12:35 | 33.94608 | -118.29859 | 1532 ft | 180 kts | 263° |
| 2026-05-06 12:35 | 33.94459 | -118.31295 | 1281 ft | 166 kts | 263° |
| 2026-05-06 12:35 | 33.94323 | -118.32615 | 1040 ft | 152 kts | 263° |
| 2026-05-06 12:36 | 33.94193 | -118.33861 | 827 ft | 149 kts | 263° |
| 2026-05-06 12:36 | 33.94059 | -118.35092 | 607 ft | 147 kts | 262° |
| 2026-05-06 12:36 | 33.93936 | -118.36300 | 425 ft | 144 kts | 263° |
| 2026-05-06 12:36 | 33.93809 | -118.37494 | 245 ft | 147 kts | 263° |
| 2026-05-06 12:37 | 33.93690 | -118.38718 | 104 ft | 146 kts | 263° |
| 2026-05-06 12:37 | 33.93581 | -118.39819 | 96 ft | 113 kts | 263° |
| 2026-05-06 12:37 | 33.93502 | -118.40574 | 94 ft | 71 kts | 263° |
| 2026-05-06 12:37 | 33.93482 | -118.40944 | 94 ft | 24 kts | 275° |
| 2026-05-06 12:38 | 33.93504 | -118.41080 | 94 ft | 16 kts | 287° |
| 2026-05-06 12:38 | 33.93545 | -118.41207 | 94 ft | 16 kts | 290° |
| 2026-05-06 12:38 | 33.93636 | -118.41268 | 95 ft | 15 kts | 350° |
| 2026-05-06 12:38 | 33.93741 | -118.41267 | 94 ft | 15 kts | 18° |
| 2026-05-06 12:39 | 33.93823 | -118.41239 | 94 ft | 9 kts | 39° |
| 2026-05-06 12:39 | 33.93854 | -118.41174 | 93 ft | 9 kts | 52° |
| 2026-05-06 12:39 | 33.93917 | -118.41171 | 93 ft | 10 kts | 349° |
| 2026-05-06 12:39 | 33.93935 | -118.41174 | 93 ft | 0 kts | 353° |
| 2026-05-06 12:40 | 33.93936 | -118.41174 | 93 ft | 0 kts | 353° |
| 2026-05-06 12:40 | 33.93948 | -118.41175 | 93 ft | 4 kts | 355° |
| 2026-05-06 12:40 | 33.93993 | -118.41181 | 92 ft | 9 kts | 352° |
| 2026-05-06 12:40 | 33.94046 | -118.41232 | 92 ft | 10 kts | 277° |
| 2026-05-06 12:41 | 33.94004 | -118.41279 | 93 ft | 10 kts | 186° |
| 2026-05-06 12:41 | 33.93927 | -118.41270 | 93 ft | 12 kts | 173° |
| 2026-05-06 12:41 | 33.93843 | -118.41219 | 94 ft | 16 kts | 107° |
| 2026-05-06 12:41 | 33.93852 | -118.41079 | 93 ft | 18 kts | 83° |
| 2026-05-06 12:42 | 33.93868 | -118.40915 | 95 ft | 21 kts | 82° |
| 2026-05-06 12:42 | 33.93881 | -118.40731 | 92 ft | 23 kts | 89° |
| 2026-05-06 12:42 | 33.93907 | -118.40535 | 92 ft | 24 kts | 84° |
| 2026-05-06 12:42 | 33.93925 | -118.40362 | 93 ft | 18 kts | 82° |
| 2026-05-06 12:43 | 33.93937 | -118.40240 | 96 ft | 13 kts | 83° |
| 2026-05-06 12:43 | 33.93949 | -118.40121 | 93 ft | 16 kts | 83° |
| 2026-05-06 12:43 | 33.93966 | -118.39966 | 94 ft | 21 kts | 83° |
| 2026-05-06 12:43 | 33.93984 | -118.39777 | 96 ft | 24 kts | 83° |
| 2026-05-06 12:44 | 33.94004 | -118.39584 | 92 ft | 23 kts | 83° |
| 2026-05-06 12:44 | 33.94025 | -118.39410 | 94 ft | 6 kts | 58° |
| 2026-05-06 12:44 | 33.94054 | -118.39413 | 94 ft | 5 kts | 354° |
| 2026-05-06 12:44 | 33.94081 | -118.39388 | 93 ft | 6 kts | 72° |
| 2026-05-06 12:45 | 33.94093 | -118.39331 | 92 ft | 8 kts | 54° |
| 2026-05-06 12:45 | 33.94149 | -118.39315 | 93 ft | 9 kts | 2° |
| 2026-05-06 12:45 | 33.94193 | -118.39331 | 93 ft | 1 kts | 296° |
| 2026-05-06 12:46 | 33.94199 | -118.39349 | 94 ft | 1 kts | 288° |
| 2026-05-06 12:46 | 33.94199 | -118.39351 | 92 ft | 0 kts | 288° |